James D. Moran — WDI2873 — position and weather

sailwx.info

Track history (hours):
 
Tides and Currents Weather Stations Pressure Air Temp Water Temp Dewpoint Dewpoint Depression Visibility Wind Speed Wind Dir Waves Ship Positions

James D. Moran

Owner: Moran Towing Corporation, New Canaan, CT. More information available from US FCC via Universal Licensing System and Coast Guard Vessel Documentation Center.

Last reported at 2017-Dec-16 20:28 UTC. Time now 2017-Dec-16 20:44 UTC.
Position N 40°38' W 074°08'.

Length 28 m; draft 5.2 m.

Type: Tug. MMSI: 367682610.

Date/timePositionNaut miles runAvg speedWind from/ knotsBaromVisibWave heightAir tempDewpointWater temp
2017-Dec-16 20:28N 40°38' W 074°08'0 0.0
2017-Dec-16 20:00N 40°38' W 074°08'0 0.0
2017-Dec-16 19:30N 40°38' W 074°08'0 0.0
2017-Dec-16 18:59N 40°38' W 074°08'0 0.0
2017-Dec-16 18:29N 40°38' W 074°08'0 0.0
2017-Dec-16 18:00N 40°38' W 074°08'0 0.0
2017-Dec-16 17:30N 40°38' W 074°08'0 0.0
2017-Dec-16 17:00N 40°38' W 074°08'0 0.0
2017-Dec-16 16:29N 40°38' W 074°08'0 0.0
2017-Dec-16 16:00N 40°38' W 074°08'4 7.2
2017-Dec-16 15:30N 40°37' W 074°12'5 2.2
2017-Dec-16 13:16N 40°33' W 074°15'310.0
2017-Dec-16 13:00N 40°34' W 074°13'5 9.3
2017-Dec-16 12:29N 40°39' W 074°10'1 2.7
2017-Dec-16 12:00N 40°40' W 074°09'1 2.6
2017-Dec-16 11:30N 40°41' W 074°09'0 0.7
2017-Dec-16 11:00N 40°41' W 074°08'1 1.3
2017-Dec-16 10:30N 40°40' W 074°09'1 2.1
2017-Dec-16 10:00N 40°41' W 074°09'0 0.0
2017-Dec-16 09:30N 40°41' W 074°09'0 0.1
2017-Dec-16 08:59N 40°41' W 074°09'0 0.0
2017-Dec-16 08:30N 40°41' W 074°09'0 0.0
2017-Dec-16 08:01N 40°41' W 074°09'0 0.3
2017-Dec-16 07:30N 40°41' W 074°09'1 2.9
2017-Dec-16 07:00N 40°39' W 074°09'0 0.4
2017-Dec-16 06:29N 40°40' W 074°09'0 0.0
2017-Dec-16 05:59N 40°40' W 074°09'1 2.8
2017-Dec-16 05:30N 40°38' W 074°08'0 0.0
2017-Dec-16 04:59N 40°38' W 074°08'0 0.0
2017-Dec-16 04:30N 40°38' W 074°08'0 0.0
2017-Dec-16 03:02N 40°38' W 074°08'1 7.9
2017-Dec-16 02:55N 40°39' W 074°07'2 4.2
2017-Dec-16 02:30N 40°40' W 074°09'2 3.7
2017-Dec-16 01:56N 40°42' W 074°08'0 0.1
2017-Dec-16 01:30N 40°42' W 074°08'0 0.0
2017-Dec-16 01:00N 40°42' W 074°08'3 5.2
2017-Dec-16 00:21N 40°39' W 074°06'0 0.5
2017-Dec-15 23:29N 40°39' W 074°05'1 1.5
2017-Dec-15 22:39N 40°39' W 074°04'0 1.0
2017-Dec-15 22:30N 40°39' W 074°04'0 0.1
2017-Dec-15 22:00N 40°39' W 074°04'0 0.0
2017-Dec-15 21:30N 40°39' W 074°04'3 7.0
2017-Dec-15 21:00N 40°39' W 074°09'2 4.4
2017-Dec-15 20:30N 40°38' W 074°11'0 0.2
2017-Dec-15 19:54N 40°39' W 074°11'3 1.4
2017-Dec-15 18:00N 40°38' W 074°08'0 0.0
2017-Dec-15 17:29N 40°38' W 074°08'1 1.9
2017-Dec-15 17:00N 40°39' W 074°09'2 4.6
2017-Dec-15 16:30N 40°41' W 074°09'1 1.4
2017-Dec-15 16:00N 40°41' W 074°08'2 3.9
2017-Dec-15 15:29N 40°39' W 074°09'3 6.5
2017-Dec-15 15:00N 40°39' W 074°05'4 7.3
2017-Dec-15 14:30N 40°36' W 074°02'3 6.3
2017-Dec-15 14:00N 40°39' W 074°04'4 7.6
2017-Dec-15 13:30N 40°39' W 074°09'2 3.6
2017-Dec-15 12:57N 40°41' W 074°09'0 0.2
2017-Dec-15 12:24N 40°41' W 074°09'0 0.0
2017-Dec-15 12:00N 40°41' W 074°09'0 0.5
2017-Dec-15 11:29N 40°41' W 074°09'0 0.0
2017-Dec-15 11:00N 40°41' W 074°09'2 3.3
2017-Dec-15 10:30N 40°39' W 074°09'3 5.7
2017-Dec-15 10:00N 40°39' W 074°05'2 3.2
2017-Dec-15 09:30N 40°39' W 074°07'1 2.7
2017-Dec-15 09:00N 40°39' W 074°09'1 2.8
2017-Dec-15 08:30N 40°41' W 074°08'1 1.2
2017-Dec-15 08:00N 40°41' W 074°09'0 0.1
2017-Dec-15 07:30N 40°41' W 074°09'0 0.0
2017-Dec-15 07:00N 40°41' W 074°09'2 4.4
2017-Dec-15 06:31N 40°39' W 074°09'1 2.7
2017-Dec-15 06:00N 40°39' W 074°11'0 0.5
2017-Dec-15 05:30N 40°39' W 074°11'3 5.3
2017-Dec-15 05:00N 40°38' W 074°08'0 0.0
2017-Dec-15 04:28N 40°38' W 074°08'0 0.0
2017-Dec-15 02:28N 40°38' W 074°08'0 0.0
2017-Dec-15 00:55N 40°38' W 074°08'0 0.0
2017-Dec-15 00:25N 40°38' W 074°08'0 0.0
2017-Dec-14 18:19N 40°38' W 074°08'0 0.0
2017-Dec-14 17:58N 40°38' W 074°08'0 0.0
2017-Dec-14 15:46N 40°38' W 074°08'0 0.0
2017-Dec-14 14:52N 40°38' W 074°08'0 0.0
2017-Dec-14 13:22N 40°38' W 074°08'0 0.0
2017-Dec-14 12:58N 40°38' W 074°08'0 0.0
2017-Dec-14 12:16N 40°38' W 074°08'0 0.2
2017-Dec-14 12:00N 40°39' W 074°08'3 5.8
2017-Dec-14 11:30N 40°41' W 074°09'0 0.3
2017-Dec-14 11:00N 40°41' W 074°09'1 2.7
2017-Dec-14 10:30N 40°40' W 074°08'2 3.4
2017-Dec-14 10:00N 40°39' W 074°07'3 5.7
2017-Dec-14 09:30N 40°38' W 074°03'1 2.8
2017-Dec-14 09:00N 40°39' W 074°04'3 3.0
2017-Dec-14 08:09N 40°38' W 074°08'0 0.0
2017-Dec-14 08:00N 40°38' W 074°08'0 0.0
2017-Dec-14 07:24N 40°38' W 074°08'0 0.0
2017-Dec-14 07:00N 40°38' W 074°08'0 0.0
2017-Dec-14 06:24N 40°38' W 074°08'0 0.0
2017-Dec-14 05:30N 40°38' W 074°08'0 0.0
2017-Dec-14 04:54N 40°38' W 074°08'0 0.0
2017-Dec-14 04:30N 40°38' W 074°08'0 0.1
2017-Dec-14 04:01N 40°39' W 074°08'3 5.6
2017-Dec-14 03:30N 40°41' W 074°08'0 0.8
2017-Dec-14 03:00N 40°41' W 074°08'2 4.8
2017-Dec-14 02:30N 40°39' W 074°07'0 0.5
2017-Dec-14 01:59N 40°38' W 074°08'0 0.0
2017-Dec-14 00:30N 40°38' W 074°08'1 2.5
2017-Dec-14 00:00N 40°40' W 074°09'2 3.2
2017-Dec-13 23:30N 40°41' W 074°09'0 0.1
2017-Dec-13 23:00N 40°41' W 074°09'3 5.6
2017-Dec-13 22:30N 40°39' W 074°08'0 0.6
2017-Dec-13 21:59N 40°38' W 074°08'0 0.0
2017-Dec-13 21:30N 40°38' W 074°08'0 0.0
2017-Dec-13 20:54N 40°38' W 074°08'0 0.0
2017-Dec-13 20:30N 40°38' W 074°08'0 0.0
2017-Dec-13 20:00N 40°38' W 074°08'0 0.0
2017-Dec-13 19:29N 40°38' W 074°08'0 0.0
2017-Dec-13 19:00N 40°38' W 074°08'0 0.0
2017-Dec-13 18:30N 40°38' W 074°08'0 0.0
2017-Dec-13 17:59N 40°38' W 074°08'1 2.2
2017-Dec-13 17:30N 40°39' W 074°09'2 3.3
2017-Dec-13 17:01N 40°41' W 074°09'0 0.3
2017-Dec-13 16:30N 40°41' W 074°09'1 2.8
2017-Dec-13 16:00N 40°40' W 074°09'1 2.9
2017-Dec-13 15:30N 40°39' W 074°07'3 5.0
2017-Dec-13 14:59N 40°39' W 074°04'3 6.5
2017-Dec-13 14:30N 40°36' W 074°02'2 5.0
2017-Dec-13 14:00N 40°38' W 074°04'3 6.5
2017-Dec-13 13:30N 40°39' W 074°08'1 2.7
2017-Dec-13 12:59N 40°40' W 074°09'1 2.0
2017-Dec-13 12:30N 40°41' W 074°09'0 0.4
2017-Dec-13 12:00N 40°41' W 074°09'0 0.4
2017-Dec-13 11:29N 40°41' W 074°09'0 0.0
2017-Dec-13 11:00N 40°41' W 074°09'0 0.0
2017-Dec-13 10:29N 40°41' W 074°09'3 5.4
2017-Dec-13 09:59N 40°39' W 074°08'3 6.7
2017-Dec-13 09:30N 40°39' W 074°04'3 5.0
2017-Dec-13 09:00N 40°41' W 074°01'1 1.2
2017-Dec-13 08:30N 40°41' W 074°01'5 9.6
2017-Dec-13 08:01N 40°39' W 074°06'1 2.5
2017-Dec-13 07:30N 40°38' W 074°08'0 0.0
2017-Dec-13 06:56N 40°38' W 074°08'0 0.0
2017-Dec-13 06:25N 40°38' W 074°08'0 0.0
2017-Dec-13 06:00N 40°38' W 074°08'0 0.0
2017-Dec-13 05:30N 40°38' W 074°08'0 0.0
2017-Dec-13 04:59N 40°38' W 074°08'0 0.0
2017-Dec-13 04:29N 40°38' W 074°08'2 3.1
2017-Dec-13 04:00N 40°40' W 074°08'1 2.3
2017-Dec-13 03:30N 40°41' W 074°09'0 0.3
2017-Dec-13 03:00N 40°41' W 074°09'2 3.3
2017-Dec-13 02:30N 40°39' W 074°09'2 4.0
2017-Dec-13 02:00N 40°39' W 074°06'3 5.9
2017-Dec-13 01:30N 40°37' W 074°03'2 3.8
2017-Dec-13 01:00N 40°35' W 074°02'2 4.9
2017-Dec-13 00:30N 40°38' W 074°03'3 1.5
2017-Dec-12 22:10N 40°38' W 074°08'1 5.3
2017-Dec-12 21:59N 40°39' W 074°07'2 4.0
2017-Dec-12 21:30N 40°39' W 074°09'2 3.3
2017-Dec-12 20:57N 40°40' W 074°08'1 1.5
2017-Dec-12 20:30N 40°41' W 074°09'2 3.7
2017-Dec-12 19:58N 40°39' W 074°09'1 2.2
2017-Dec-12 19:30N 40°38' W 074°08'0 0.0
2017-Dec-12 18:59N 40°38' W 074°08'0 0.0
2017-Dec-12 18:30N 40°38' W 074°08'0 0.0
2017-Dec-12 18:00N 40°38' W 074°08'0 0.0
2017-Dec-12 17:30N 40°38' W 074°08'0 0.0
2017-Dec-12 16:58N 40°38' W 074°08'0 0.0
2017-Dec-12 16:29N 40°38' W 074°08'0 0.0
2017-Dec-12 16:00N 40°38' W 074°08'0 0.0
2017-Dec-12 15:30N 40°38' W 074°08'0 0.0
2017-Dec-12 14:58N 40°38' W 074°08'0 0.0
2017-Dec-12 14:30N 40°38' W 074°08'0 0.0
2017-Dec-12 14:00N 40°38' W 074°08'0 0.0
2017-Dec-12 13:30N 40°38' W 074°08'0 0.0
2017-Dec-12 13:00N 40°38' W 074°08'0 0.0
2017-Dec-12 12:30N 40°38' W 074°08'1 2.1
2017-Dec-12 12:00N 40°39' W 074°09'3 5.3
2017-Dec-12 11:30N 40°42' W 074°08'0 0.1
2017-Dec-12 11:00N 40°42' W 074°08'1 2.6
2017-Dec-12 10:30N 40°40' W 074°08'2 4.3
2017-Dec-12 10:00N 40°39' W 074°06'3 5.0
2017-Dec-12 09:29N 40°38' W 074°03'4 3.7
2017-Dec-12 08:29N 40°38' W 074°08'0 0.0
2017-Dec-12 07:58N 40°38' W 074°08'0 0.0
2017-Dec-12 07:22N 40°38' W 074°08'0 0.0
2017-Dec-12 06:58N 40°38' W 074°08'0 0.0
2017-Dec-12 06:27N 40°38' W 074°08'0 0.0
2017-Dec-12 05:57N 40°38' W 074°08'0 0.0
2017-Dec-12 05:23N 40°38' W 074°08'0 0.0
2017-Dec-12 04:57N 40°38' W 074°08'0 0.0
2017-Dec-12 04:27N 40°38' W 074°08'0 0.0
2017-Dec-12 04:00N 40°38' W 074°08'0 0.0
2017-Dec-12 03:29N 40°38' W 074°08'0 0.0
2017-Dec-12 03:00N 40°38' W 074°08'0 0.0
2017-Dec-12 02:29N 40°38' W 074°08'0 0.0
2017-Dec-12 02:00N 40°38' W 074°08'0 0.0
2017-Dec-12 01:30N 40°38' W 074°08'0 0.0
2017-Dec-12 01:00N 40°38' W 074°08'0 0.0
2017-Dec-12 00:30N 40°38' W 074°08'0 0.0
2017-Dec-11 23:59N 40°38' W 074°08'0 0.0
2017-Dec-11 23:30N 40°38' W 074°08'0 0.0
2017-Dec-11 23:00N 40°38' W 074°08'3 5.3
2017-Dec-11 22:30N 40°41' W 074°09'0 0.5
2017-Dec-11 22:00N 40°41' W 074°09'2 3.8
2017-Dec-11 21:29N 40°39' W 074°09'2 4.5
2017-Dec-11 20:59N 40°39' W 074°06'2 5.0
2017-Dec-11 20:30N 40°38' W 074°03'2 4.1
2017-Dec-11 20:00N 40°39' W 074°05'2 3.8
2017-Dec-11 19:30N 40°38' W 074°08'0 0.0
2017-Dec-11 19:00N 40°38' W 074°08'0 0.0
2017-Dec-11 18:30N 40°38' W 074°08'0 0.0
2017-Dec-11 18:00N 40°38' W 074°08'0 0.0
2017-Dec-11 17:30N 40°38' W 074°08'0 0.0
2017-Dec-11 17:00N 40°38' W 074°08'0 0.0
2017-Dec-11 16:30N 40°38' W 074°08'1 2.8
2017-Dec-11 16:00N 40°40' W 074°09'0 0.2
2017-Dec-11 15:30N 40°40' W 074°09'1 2.6
2017-Dec-11 15:00N 40°39' W 074°08'3 6.7
2017-Dec-11 14:30N 40°38' W 074°04'1 1.3
2017-Dec-11 14:01N 40°38' W 074°03'4 7.3
2017-Dec-11 13:30N 40°38' W 074°08'0 0.0
2017-Dec-11 13:00N 40°38' W 074°08'0 0.0
2017-Dec-11 12:29N 40°38' W 074°08'0 0.0
2017-Dec-11 11:59N 40°38' W 074°08'0 0.0
2017-Dec-11 11:30N 40°38' W 074°08'1 3.0
2017-Dec-11 11:00N 40°40' W 074°09'0 0.1
2017-Dec-11 10:30N 40°40' W 074°09'2 3.0
2017-Dec-11 09:59N 40°39' W 074°07'1 2.8
2017-Dec-11 09:31N 40°39' W 074°06'2 3.4
2017-Dec-11 09:00N 40°38' W 074°08'0 0.0
2017-Dec-11 08:24N 40°38' W 074°08'0 0.0
2017-Dec-11 08:00N 40°38' W 074°08'0 0.0
2017-Dec-11 07:30N 40°38' W 074°08'0 0.0
2017-Dec-11 07:00N 40°38' W 074°08'0 0.0
2017-Dec-11 06:30N 40°38' W 074°08'0 0.0
2017-Dec-11 05:57N 40°38' W 074°08'0 0.0
2017-Dec-11 05:30N 40°38' W 074°08'0 0.0
2017-Dec-11 05:00N 40°38' W 074°08'0 0.0
2017-Dec-11 04:30N 40°38' W 074°08'0 0.0
2017-Dec-11 04:00N 40°38' W 074°08'0 0.0
2017-Dec-11 03:24N 40°38' W 074°08'0 0.0
2017-Dec-11 02:57N 40°38' W 074°08'0 0.0
2017-Dec-11 02:30N 40°38' W 074°08'0 0.0
2017-Dec-11 01:42N 40°38' W 074°08'0 0.0
2017-Dec-11 01:15N 40°38' W 074°08'0 0.0
2017-Dec-11 00:09N 40°38' W 074°08'0 0.0
2017-Dec-11 00:00N 40°38' W 074°08'0 0.0
2017-Dec-10 23:30N 40°38' W 074°08'0 0.0
2017-Dec-10 23:00N 40°38' W 074°08'0 0.0
2017-Dec-10 22:28N 40°38' W 074°08'0 0.0
2017-Dec-10 22:00N 40°38' W 074°08'0 0.0
2017-Dec-10 21:30N 40°38' W 074°08'0 0.0
2017-Dec-10 21:00N 40°38' W 074°08'0 0.0
2017-Dec-10 20:30N 40°38' W 074°08'0 0.0
2017-Dec-10 20:00N 40°38' W 074°08'0 0.0
2017-Dec-10 19:30N 40°38' W 074°08'0 0.0
2017-Dec-10 19:00N 40°38' W 074°08'0 0.0
2017-Dec-10 18:30N 40°38' W 074°08'0 0.0
2017-Dec-10 18:00N 40°38' W 074°08'0 0.0
2017-Dec-10 17:30N 40°38' W 074°08'0 0.0
2017-Dec-10 16:59N 40°38' W 074°08'0 0.0
2017-Dec-10 16:30N 40°38' W 074°08'0 0.1
2017-Dec-10 16:00N 40°38' W 074°08'0 0.0
2017-Dec-10 15:25N 40°38' W 074°08'0 0.0
2017-Dec-10 14:49N 40°38' W 074°08'0 0.0
2017-Dec-10 14:27N 40°38' W 074°08'0 0.0
2017-Dec-10 13:59N 40°38' W 074°08'0 0.7
2017-Dec-10 13:31N 40°39' W 074°07'0 0.2
2017-Dec-10 13:00N 40°39' W 074°07'0 0.0
2017-Dec-10 12:30N 40°39' W 074°07'0 0.0
2017-Dec-10 12:00N 40°39' W 074°07'0 0.7
2017-Dec-10 11:20N 40°38' W 074°08'0 0.0
2017-Dec-10 10:30N 40°38' W 074°08'0 0.0
2017-Dec-10 09:52N 40°38' W 074°08'0 0.0
2017-Dec-10 09:27N 40°38' W 074°08'0 0.0
2017-Dec-10 09:00N 40°38' W 074°08'0 0.0
2017-Dec-10 08:30N 40°38' W 074°08'0 0.0
2017-Dec-10 07:42N 40°38' W 074°08'0 0.0
2017-Dec-10 07:28N 40°38' W 074°08'0 0.0
2017-Dec-10 06:58N 40°38' W 074°08'0 0.0
2017-Dec-10 06:05N 40°38' W 074°08'0 0.0
2017-Dec-10 05:59N 40°38' W 074°08'0 0.0
2017-Dec-10 05:30N 40°38' W 074°08'3 6.0
2017-Dec-10 05:00N 40°41' W 074°09'0 0.5
2017-Dec-10 04:30N 40°41' W 074°09'0 0.1
2017-Dec-10 04:00N 40°41' W 074°09'1 1.8
2017-Dec-10 03:30N 40°40' W 074°08'2 3.8
2017-Dec-10 03:00N 40°39' W 074°07'0 0.3
2017-Dec-10 02:06N 40°38' W 074°08'0 0.0
2017-Dec-10 02:00N 40°38' W 074°08'0 0.0
2017-Dec-10 01:12N 40°38' W 074°08'0 0.0
2017-Dec-10 00:57N 40°38' W 074°08'0 0.0
2017-Dec-10 00:30N 40°38' W 074°08'0 0.0
2017-Dec-10 00:00N 40°38' W 074°08'0 0.0
2017-Dec-09 23:27N 40°38' W 074°08'0 0.0
2017-Dec-09 22:57N 40°38' W 074°08'0 0.0
2017-Dec-09 22:30N 40°38' W 074°08'0 0.0
2017-Dec-09 21:33N 40°38' W 074°08'0 0.0
2017-Dec-09 21:30N 40°38' W 074°08'0 0.0
2017-Dec-09 20:57N 40°38' W 074°08'0 0.0
2017-Dec-09 20:18N 40°38' W 074°08'0 0.0
2017-Dec-09 19:54N 40°38' W 074°08'0 0.0
2017-Dec-09 19:27N 40°38' W 074°08'0 0.0
2017-Dec-09 18:57N 40°38' W 074°08'0 0.0
2017-Dec-09 18:27N 40°38' W 074°08'0 0.0
2017-Dec-09 18:00N 40°38' W 074°08'0 0.0
2017-Dec-09 17:21N 40°38' W 074°08'0 0.0
2017-Dec-09 17:00N 40°38' W 074°08'0 0.0
2017-Dec-09 16:29N 40°38' W 074°08'0 0.0
2017-Dec-09 15:26N 40°38' W 074°08'0 0.0
2017-Dec-09 14:59N 40°38' W 074°08'0 0.0
2017-Dec-09 14:27N 40°38' W 074°08'0 0.0
2017-Dec-09 14:00N 40°38' W 074°08'0 0.0
2017-Dec-09 13:30N 40°38' W 074°08'0 0.0
2017-Dec-09 13:00N 40°38' W 074°08'0 0.0
2017-Dec-09 12:30N 40°38' W 074°08'3 5.0
2017-Dec-09 12:00N 40°41' W 074°09'0 0.6
2017-Dec-09 11:30N 40°41' W 074°09'1 2.6
2017-Dec-09 11:00N 40°40' W 074°08'2 3.1
2017-Dec-09 10:30N 40°39' W 074°07'3 5.8
2017-Dec-09 10:00N 40°39' W 074°04'2 3.9
2017-Dec-09 09:30N 40°37' W 074°03'3 5.9
2017-Dec-09 09:00N 40°39' W 074°06'0 0.0
2017-Dec-09 08:30N 40°39' W 074°06'0 0.0
2017-Dec-09 08:00N 40°39' W 074°06'2 4.8
2017-Dec-09 07:30N 40°39' W 074°09'2 3.6
2017-Dec-09 07:00N 40°41' W 074°09'0 0.4
2017-Dec-09 06:30N 40°41' W 074°08'2 4.1
2017-Dec-09 06:00N 40°39' W 074°09'2 4.8
2017-Dec-09 05:30N 40°39' W 074°06'3 5.5
2017-Dec-09 05:00N 40°37' W 074°03'3 6.2
2017-Dec-09 04:30N 40°39' W 074°06'1 1.7
2017-Dec-09 03:51N 40°38' W 074°08'0 0.0
2017-Dec-09 02:10N 40°38' W 074°08'0 0.0
2017-Dec-09 01:52N 40°38' W 074°08'0 0.0
2017-Dec-09 01:28N 40°38' W 074°08'0 0.0
2017-Dec-09 00:22N 40°38' W 074°08'0 0.0
2017-Dec-08 23:51N 40°38' W 074°08'0 0.0
2017-Dec-08 23:31N 40°38' W 074°08'0 0.0
2017-Dec-08 22:45N 40°38' W 074°08'0 0.0
2017-Dec-08 22:30N 40°38' W 074°08'0 0.0
2017-Dec-08 22:00N 40°38' W 074°08'0 0.0
2017-Dec-08 21:30N 40°38' W 074°08'0 0.0
2017-Dec-08 21:00N 40°38' W 074°08'0 0.0
2017-Dec-08 20:30N 40°38' W 074°08'0 0.0
2017-Dec-08 20:00N 40°38' W 074°08'0 0.0
2017-Dec-08 19:30N 40°38' W 074°08'0 0.0
2017-Dec-08 19:00N 40°38' W 074°08'0 0.0
2017-Dec-08 18:30N 40°38' W 074°08'0 0.0
2017-Dec-08 18:00N 40°38' W 074°08'0 0.0
2017-Dec-08 17:31N 40°38' W 074°08'0 0.0
2017-Dec-08 17:00N 40°38' W 074°08'0 0.0
2017-Dec-08 16:30N 40°38' W 074°08'0 0.0
2017-Dec-08 16:00N 40°38' W 074°08'0 0.0
2017-Dec-08 15:30N 40°38' W 074°08'0 0.0
2017-Dec-08 15:00N 40°38' W 074°08'0 0.0
2017-Dec-08 14:30N 40°38' W 074°08'0 0.0
2017-Dec-08 14:00N 40°38' W 074°08'0 0.0
2017-Dec-08 13:30N 40°38' W 074°08'0 0.0
2017-Dec-08 13:00N 40°38' W 074°08'1 2.1
2017-Dec-08 12:30N 40°39' W 074°09'2 4.0
2017-Dec-08 12:00N 40°41' W 074°09'0 0.7
2017-Dec-08 11:30N 40°41' W 074°09'1 2.0
2017-Dec-08 11:00N 40°40' W 074°09'1 3.0
2017-Dec-08 10:30N 40°39' W 074°07'3 6.0
2017-Dec-08 10:00N 40°38' W 074°03'1 2.9
2017-Dec-08 09:30N 40°37' W 074°03'3 7.1
2017-Dec-08 09:00N 40°39' W 074°07'1 1.5
2017-Dec-08 08:30N 40°38' W 074°08'0 0.0
2017-Dec-08 07:59N 40°38' W 074°08'0 0.0
2017-Dec-08 07:30N 40°38' W 074°08'0 0.0
2017-Dec-08 07:00N 40°38' W 074°08'0 0.0
2017-Dec-08 06:30N 40°38' W 074°08'0 0.0
2017-Dec-08 05:59N 40°38' W 074°08'0 0.0
2017-Dec-08 05:30N 40°38' W 074°08'0 0.0
2017-Dec-08 05:00N 40°38' W 074°08'2 3.5
2017-Dec-08 04:29N 40°40' W 074°08'1 1.5
2017-Dec-08 04:00N 40°41' W 074°09'0 0.1
2017-Dec-08 03:30N 40°41' W 074°09'2 5.1
2017-Dec-08 03:00N 40°38' W 074°08'0 0.0
2017-Dec-08 02:30N 40°38' W 074°08'0 0.0
2017-Dec-08 02:00N 40°38' W 074°08'0 0.0
2017-Dec-08 01:30N 40°38' W 074°08'0 0.0
2017-Dec-08 01:00N 40°38' W 074°08'1 1.8
2017-Dec-08 00:30N 40°39' W 074°09'3 5.7
2017-Dec-08 00:00N 40°41' W 074°08'1 3.0
2017-Dec-07 23:30N 40°40' W 074°08'2 3.0
2017-Dec-07 23:00N 40°38' W 074°08'0 0.0
2017-Dec-07 22:29N 40°38' W 074°08'0 0.0
2017-Dec-07 22:00N 40°38' W 074°08'0 0.0
2017-Dec-07 21:30N 40°38' W 074°08'0 0.0
2017-Dec-07 20:59N 40°38' W 074°08'0 0.0
2017-Dec-07 20:29N 40°38' W 074°08'0 0.0
2017-Dec-07 20:00N 40°38' W 074°08'0 0.0
2017-Dec-07 19:30N 40°38' W 074°08'0 0.0
2017-Dec-07 19:00N 40°38' W 074°08'0 0.0
2017-Dec-07 18:30N 40°38' W 074°08'0 0.0
2017-Dec-07 17:59N 40°38' W 074°08'0 0.0
2017-Dec-07 17:29N 40°38' W 074°08'0 0.0
2017-Dec-07 16:58N 40°38' W 074°08'1 2.7
2017-Dec-07 16:29N 40°39' W 074°06'1 2.7
2017-Dec-07 16:00N 40°39' W 074°08'1 2.2
2017-Dec-07 15:30N 40°40' W 074°09'1 2.2
2017-Dec-07 15:00N 40°41' W 074°08'0 0.4
2017-Dec-07 14:30N 40°41' W 074°09'0 0.4
2017-Dec-07 14:00N 40°41' W 074°09'2 3.3
2017-Dec-07 13:21N 40°38' W 074°08'0 0.0
2017-Dec-07 12:57N 40°38' W 074°08'0 0.0
2017-Dec-07 12:27N 40°38' W 074°08'0 0.4
2017-Dec-07 12:00N 40°39' W 074°08'3 5.2
2017-Dec-07 11:30N 40°41' W 074°09'0 0.7
2017-Dec-07 11:01N 40°41' W 074°09'2 4.6
2017-Dec-07 10:30N 40°39' W 074°08'3 6.3
2017-Dec-07 10:00N 40°39' W 074°04'2 3.1
2017-Dec-07 09:30N 40°38' W 074°03'4 7.3
2017-Dec-07 09:00N 40°38' W 074°08'0 0.0
2017-Dec-07 08:30N 40°38' W 074°08'0 0.0
2017-Dec-07 07:59N 40°38' W 074°08'0 0.0
2017-Dec-07 07:30N 40°38' W 074°08'0 0.0
2017-Dec-07 07:00N 40°38' W 074°08'0 0.0
2017-Dec-07 06:30N 40°38' W 074°08'0 0.0
2017-Dec-07 05:59N 40°38' W 074°08'0 0.0
2017-Dec-07 05:28N 40°38' W 074°08'1 1.9
2017-Dec-07 05:00N 40°39' W 074°07'2 4.4
2017-Dec-07 04:29N 40°38' W 074°04'2 4.9
2017-Dec-07 04:00N 40°39' W 074°07'3 6.7
2017-Dec-07 03:30N 40°39' W 074°11'2 4.2
2017-Dec-07 03:00N 40°37' W 074°12'0 0.0
2017-Dec-07 02:28N 40°37' W 074°12'1 2.6
2017-Dec-07 02:00N 40°38' W 074°12'3 5.7
2017-Dec-07 01:24N 40°38' W 074°08'0 0.0
2017-Dec-07 00:39N 40°38' W 074°08'0 0.0
2017-Dec-07 00:29N 40°38' W 074°08'2 3.8
2017-Dec-07 00:00N 40°40' W 074°08'1 2.9
2017-Dec-06 23:30N 40°42' W 074°08'0 0.0
2017-Dec-06 23:00N 40°42' W 074°08'2 4.5
2017-Dec-06 22:29N 40°39' W 074°09'1 2.4
2017-Dec-06 22:00N 40°38' W 074°08'0 0.0
2017-Dec-06 21:28N 40°38' W 074°08'0 0.0
2017-Dec-06 20:57N 40°38' W 074°08'  
Track history (hours):
 
Tides and Currents Weather Stations Pressure Air Temp Water Temp Dewpoint Dewpoint Depression Visibility Wind Speed Wind Dir Waves Ship Positions

James D. Moran

Owner: Moran Towing Corporation, New Canaan, CT. More information available from US FCC via Universal Licensing System and Coast Guard Vessel Documentation Center.

Last reported at 2017-Dec-16 20:28 UTC. Time now 2017-Dec-16 20:44 UTC.
Position N 40°38' W 074°08'.

Length 28 m; draft 5.2 m.

Type: Tug. MMSI: 367682610.

Date/timePositionNaut miles runAvg speedWind from/ knotsBaromVisibWave heightAir tempDewpointWater temp
2017-Dec-16 20:28N 40°38' W 074°08'0 0.0
2017-Dec-16 20:00N 40°38' W 074°08'0 0.0
2017-Dec-16 19:30N 40°38' W 074°08'0 0.0
2017-Dec-16 18:59N 40°38' W 074°08'0 0.0
2017-Dec-16 18:29N 40°38' W 074°08'0 0.0
2017-Dec-16 18:00N 40°38' W 074°08'0 0.0
2017-Dec-16 17:30N 40°38' W 074°08'0 0.0
2017-Dec-16 17:00N 40°38' W 074°08'0 0.0
2017-Dec-16 16:29N 40°38' W 074°08'0 0.0
2017-Dec-16 16:00N 40°38' W 074°08'4 7.2
2017-Dec-16 15:30N 40°37' W 074°12'5 2.2
2017-Dec-16 13:16N 40°33' W 074°15'310.0
2017-Dec-16 13:00N 40°34' W 074°13'5 9.3
2017-Dec-16 12:29N 40°39' W 074°10'1 2.7
2017-Dec-16 12:00N 40°40' W 074°09'1 2.6
2017-Dec-16 11:30N 40°41' W 074°09'0 0.7
2017-Dec-16 11:00N 40°41' W 074°08'1 1.3
2017-Dec-16 10:30N 40°40' W 074°09'1 2.1
2017-Dec-16 10:00N 40°41' W 074°09'0 0.0
2017-Dec-16 09:30N 40°41' W 074°09'0 0.1
2017-Dec-16 08:59N 40°41' W 074°09'0 0.0
2017-Dec-16 08:30N 40°41' W 074°09'0 0.0
2017-Dec-16 08:01N 40°41' W 074°09'0 0.3
2017-Dec-16 07:30N 40°41' W 074°09'1 2.9
2017-Dec-16 07:00N 40°39' W 074°09'0 0.4
2017-Dec-16 06:29N 40°40' W 074°09'0 0.0
2017-Dec-16 05:59N 40°40' W 074°09'1 2.8
2017-Dec-16 05:30N 40°38' W 074°08'0 0.0
2017-Dec-16 04:59N 40°38' W 074°08'0 0.0
2017-Dec-16 04:30N 40°38' W 074°08'0 0.0
2017-Dec-16 03:02N 40°38' W 074°08'1 7.9
2017-Dec-16 02:55N 40°39' W 074°07'2 4.2
2017-Dec-16 02:30N 40°40' W 074°09'2 3.7
2017-Dec-16 01:56N 40°42' W 074°08'0 0.1
2017-Dec-16 01:30N 40°42' W 074°08'0 0.0
2017-Dec-16 01:00N 40°42' W 074°08'3 5.2
2017-Dec-16 00:21N 40°39' W 074°06'0 0.5
2017-Dec-15 23:29N 40°39' W 074°05'1 1.5
2017-Dec-15 22:39N 40°39' W 074°04'0 1.0
2017-Dec-15 22:30N 40°39' W 074°04'0 0.1
2017-Dec-15 22:00N 40°39' W 074°04'0 0.0
2017-Dec-15 21:30N 40°39' W 074°04'3 7.0
2017-Dec-15 21:00N 40°39' W 074°09'2 4.4
2017-Dec-15 20:30N 40°38' W 074°11'0 0.2
2017-Dec-15 19:54N 40°39' W 074°11'3 1.4
2017-Dec-15 18:00N 40°38' W 074°08'0 0.0
2017-Dec-15 17:29N 40°38' W 074°08'1 1.9
2017-Dec-15 17:00N 40°39' W 074°09'2 4.6
2017-Dec-15 16:30N 40°41' W 074°09'1 1.4
2017-Dec-15 16:00N 40°41' W 074°08'2 3.9
2017-Dec-15 15:29N 40°39' W 074°09'3 6.5
2017-Dec-15 15:00N 40°39' W 074°05'4 7.3
2017-Dec-15 14:30N 40°36' W 074°02'3 6.3
2017-Dec-15 14:00N 40°39' W 074°04'4 7.6
2017-Dec-15 13:30N 40°39' W 074°09'2 3.6
2017-Dec-15 12:57N 40°41' W 074°09'0 0.2
2017-Dec-15 12:24N 40°41' W 074°09'0 0.0
2017-Dec-15 12:00N 40°41' W 074°09'0 0.5
2017-Dec-15 11:29N 40°41' W 074°09'0 0.0
2017-Dec-15 11:00N 40°41' W 074°09'2 3.3
2017-Dec-15 10:30N 40°39' W 074°09'3 5.7
2017-Dec-15 10:00N 40°39' W 074°05'2 3.2
2017-Dec-15 09:30N 40°39' W 074°07'1 2.7
2017-Dec-15 09:00N 40°39' W 074°09'1 2.8
2017-Dec-15 08:30N 40°41' W 074°08'1 1.2
2017-Dec-15 08:00N 40°41' W 074°09'0 0.1
2017-Dec-15 07:30N 40°41' W 074°09'0 0.0
2017-Dec-15 07:00N 40°41' W 074°09'2 4.4
2017-Dec-15 06:31N 40°39' W 074°09'1 2.7
2017-Dec-15 06:00N 40°39' W 074°11'0 0.5
2017-Dec-15 05:30N 40°39' W 074°11'3 5.3
2017-Dec-15 05:00N 40°38' W 074°08'0 0.0
2017-Dec-15 04:28N 40°38' W 074°08'0 0.0
2017-Dec-15 02:28N 40°38' W 074°08'0 0.0
2017-Dec-15 00:55N 40°38' W 074°08'0 0.0
2017-Dec-15 00:25N 40°38' W 074°08'0 0.0
2017-Dec-14 18:19N 40°38' W 074°08'0 0.0
2017-Dec-14 17:58N 40°38' W 074°08'0 0.0
2017-Dec-14 15:46N 40°38' W 074°08'0 0.0
2017-Dec-14 14:52N 40°38' W 074°08'0 0.0
2017-Dec-14 13:22N 40°38' W 074°08'0 0.0
2017-Dec-14 12:58N 40°38' W 074°08'0 0.0
2017-Dec-14 12:16N 40°38' W 074°08'0 0.2
2017-Dec-14 12:00N 40°39' W 074°08'3 5.8
2017-Dec-14 11:30N 40°41' W 074°09'0 0.3
2017-Dec-14 11:00N 40°41' W 074°09'1 2.7
2017-Dec-14 10:30N 40°40' W 074°08'2 3.4
2017-Dec-14 10:00N 40°39' W 074°07'3 5.7
2017-Dec-14 09:30N 40°38' W 074°03'1 2.8
2017-Dec-14 09:00N 40°39' W 074°04'3 3.0
2017-Dec-14 08:09N 40°38' W 074°08'0 0.0
2017-Dec-14 08:00N 40°38' W 074°08'0 0.0
2017-Dec-14 07:24N 40°38' W 074°08'0 0.0
2017-Dec-14 07:00N 40°38' W 074°08'0 0.0
2017-Dec-14 06:24N 40°38' W 074°08'0 0.0
2017-Dec-14 05:30N 40°38' W 074°08'0 0.0
2017-Dec-14 04:54N 40°38' W 074°08'0 0.0
2017-Dec-14 04:30N 40°38' W 074°08'0 0.1
2017-Dec-14 04:01N 40°39' W 074°08'3 5.6
2017-Dec-14 03:30N 40°41' W 074°08'0 0.8
2017-Dec-14 03:00N 40°41' W 074°08'2 4.8
2017-Dec-14 02:30N 40°39' W 074°07'0 0.5
2017-Dec-14 01:59N 40°38' W 074°08'0 0.0
2017-Dec-14 00:30N 40°38' W 074°08'1 2.5
2017-Dec-14 00:00N 40°40' W 074°09'2 3.2
2017-Dec-13 23:30N 40°41' W 074°09'0 0.1
2017-Dec-13 23:00N 40°41' W 074°09'3 5.6
2017-Dec-13 22:30N 40°39' W 074°08'0 0.6
2017-Dec-13 21:59N 40°38' W 074°08'0 0.0
2017-Dec-13 21:30N 40°38' W 074°08'0 0.0
2017-Dec-13 20:54N 40°38' W 074°08'0 0.0
2017-Dec-13 20:30N 40°38' W 074°08'0 0.0
2017-Dec-13 20:00N 40°38' W 074°08'0 0.0
2017-Dec-13 19:29N 40°38' W 074°08'0 0.0
2017-Dec-13 19:00N 40°38' W 074°08'0 0.0
2017-Dec-13 18:30N 40°38' W 074°08'0 0.0
2017-Dec-13 17:59N 40°38' W 074°08'1 2.2
2017-Dec-13 17:30N 40°39' W 074°09'2 3.3
2017-Dec-13 17:01N 40°41' W 074°09'0 0.3
2017-Dec-13 16:30N 40°41' W 074°09'1 2.8
2017-Dec-13 16:00N 40°40' W 074°09'1 2.9
2017-Dec-13 15:30N 40°39' W 074°07'3 5.0
2017-Dec-13 14:59N 40°39' W 074°04'3 6.5
2017-Dec-13 14:30N 40°36' W 074°02'2 5.0
2017-Dec-13 14:00N 40°38' W 074°04'3 6.5
2017-Dec-13 13:30N 40°39' W 074°08'1 2.7
2017-Dec-13 12:59N 40°40' W 074°09'1 2.0
2017-Dec-13 12:30N 40°41' W 074°09'0 0.4
2017-Dec-13 12:00N 40°41' W 074°09'0 0.4
2017-Dec-13 11:29N 40°41' W 074°09'0 0.0
2017-Dec-13 11:00N 40°41' W 074°09'0 0.0
2017-Dec-13 10:29N 40°41' W 074°09'3 5.4
2017-Dec-13 09:59N 40°39' W 074°08'3 6.7
2017-Dec-13 09:30N 40°39' W 074°04'3 5.0
2017-Dec-13 09:00N 40°41' W 074°01'1 1.2
2017-Dec-13 08:30N 40°41' W 074°01'5 9.6
2017-Dec-13 08:01N 40°39' W 074°06'1 2.5
2017-Dec-13 07:30N 40°38' W 074°08'0 0.0
2017-Dec-13 06:56N 40°38' W 074°08'0 0.0
2017-Dec-13 06:25N 40°38' W 074°08'0 0.0
2017-Dec-13 06:00N 40°38' W 074°08'0 0.0
2017-Dec-13 05:30N 40°38' W 074°08'0 0.0
2017-Dec-13 04:59N 40°38' W 074°08'0 0.0
2017-Dec-13 04:29N 40°38' W 074°08'2 3.1
2017-Dec-13 04:00N 40°40' W 074°08'1 2.3
2017-Dec-13 03:30N 40°41' W 074°09'0 0.3
2017-Dec-13 03:00N 40°41' W 074°09'2 3.3
2017-Dec-13 02:30N 40°39' W 074°09'2 4.0
2017-Dec-13 02:00N 40°39' W 074°06'3 5.9
2017-Dec-13 01:30N 40°37' W 074°03'2 3.8
2017-Dec-13 01:00N 40°35' W 074°02'2 4.9
2017-Dec-13 00:30N 40°38' W 074°03'3 1.5
2017-Dec-12 22:10N 40°38' W 074°08'1 5.3
2017-Dec-12 21:59N 40°39' W 074°07'2 4.0
2017-Dec-12 21:30N 40°39' W 074°09'2 3.3
2017-Dec-12 20:57N 40°40' W 074°08'1 1.5
2017-Dec-12 20:30N 40°41' W 074°09'2 3.7
2017-Dec-12 19:58N 40°39' W 074°09'1 2.2
2017-Dec-12 19:30N 40°38' W 074°08'0 0.0
2017-Dec-12 18:59N 40°38' W 074°08'0 0.0
2017-Dec-12 18:30N 40°38' W 074°08'0 0.0
2017-Dec-12 18:00N 40°38' W 074°08'0 0.0
2017-Dec-12 17:30N 40°38' W 074°08'0 0.0
2017-Dec-12 16:58N 40°38' W 074°08'0 0.0
2017-Dec-12 16:29N 40°38' W 074°08'0 0.0
2017-Dec-12 16:00N 40°38' W 074°08'0 0.0
2017-Dec-12 15:30N 40°38' W 074°08'0 0.0
2017-Dec-12 14:58N 40°38' W 074°08'0 0.0
2017-Dec-12 14:30N 40°38' W 074°08'0 0.0
2017-Dec-12 14:00N 40°38' W 074°08'0 0.0
2017-Dec-12 13:30N 40°38' W 074°08'0 0.0
2017-Dec-12 13:00N 40°38' W 074°08'0 0.0
2017-Dec-12 12:30N 40°38' W 074°08'1 2.1
2017-Dec-12 12:00N 40°39' W 074°09'3 5.3
2017-Dec-12 11:30N 40°42' W 074°08'0 0.1
2017-Dec-12 11:00N 40°42' W 074°08'1 2.6
2017-Dec-12 10:30N 40°40' W 074°08'2 4.3
2017-Dec-12 10:00N 40°39' W 074°06'3 5.0
2017-Dec-12 09:29N 40°38' W 074°03'4 3.7
2017-Dec-12 08:29N 40°38' W 074°08'0 0.0
2017-Dec-12 07:58N 40°38' W 074°08'0 0.0
2017-Dec-12 07:22N 40°38' W 074°08'0 0.0
2017-Dec-12 06:58N 40°38' W 074°08'0 0.0
2017-Dec-12 06:27N 40°38' W 074°08'0 0.0
2017-Dec-12 05:57N 40°38' W 074°08'0 0.0
2017-Dec-12 05:23N 40°38' W 074°08'0 0.0
2017-Dec-12 04:57N 40°38' W 074°08'0 0.0
2017-Dec-12 04:27N 40°38' W 074°08'0 0.0
2017-Dec-12 04:00N 40°38' W 074°08'0 0.0
2017-Dec-12 03:29N 40°38' W 074°08'0 0.0
2017-Dec-12 03:00N 40°38' W 074°08'0 0.0
2017-Dec-12 02:29N 40°38' W 074°08'0 0.0
2017-Dec-12 02:00N 40°38' W 074°08'0 0.0
2017-Dec-12 01:30N 40°38' W 074°08'0 0.0
2017-Dec-12 01:00N 40°38' W 074°08'0 0.0
2017-Dec-12 00:30N 40°38' W 074°08'0 0.0
2017-Dec-11 23:59N 40°38' W 074°08'0 0.0
2017-Dec-11 23:30N 40°38' W 074°08'0 0.0
2017-Dec-11 23:00N 40°38' W 074°08'3 5.3
2017-Dec-11 22:30N 40°41' W 074°09'0 0.5
2017-Dec-11 22:00N 40°41' W 074°09'2 3.8
2017-Dec-11 21:29N 40°39' W 074°09'2 4.5
2017-Dec-11 20:59N 40°39' W 074°06'2 5.0
2017-Dec-11 20:30N 40°38' W 074°03'2 4.1
2017-Dec-11 20:00N 40°39' W 074°05'2 3.8
2017-Dec-11 19:30N 40°38' W 074°08'0 0.0
2017-Dec-11 19:00N 40°38' W 074°08'0 0.0
2017-Dec-11 18:30N 40°38' W 074°08'0 0.0
2017-Dec-11 18:00N 40°38' W 074°08'0 0.0
2017-Dec-11 17:30N 40°38' W 074°08'0 0.0
2017-Dec-11 17:00N 40°38' W 074°08'0 0.0
2017-Dec-11 16:30N 40°38' W 074°08'1 2.8
2017-Dec-11 16:00N 40°40' W 074°09'0 0.2
2017-Dec-11 15:30N 40°40' W 074°09'1 2.6
2017-Dec-11 15:00N 40°39' W 074°08'3 6.7
2017-Dec-11 14:30N 40°38' W 074°04'1 1.3
2017-Dec-11 14:01N 40°38' W 074°03'4 7.3
2017-Dec-11 13:30N 40°38' W 074°08'0 0.0
2017-Dec-11 13:00N 40°38' W 074°08'0 0.0
2017-Dec-11 12:29N 40°38' W 074°08'0 0.0
2017-Dec-11 11:59N 40°38' W 074°08'0 0.0
2017-Dec-11 11:30N 40°38' W 074°08'1 3.0
2017-Dec-11 11:00N 40°40' W 074°09'0 0.1
2017-Dec-11 10:30N 40°40' W 074°09'2 3.0
2017-Dec-11 09:59N 40°39' W 074°07'1 2.8
2017-Dec-11 09:31N 40°39' W 074°06'2 3.4
2017-Dec-11 09:00N 40°38' W 074°08'0 0.0
2017-Dec-11 08:24N 40°38' W 074°08'0 0.0
2017-Dec-11 08:00N 40°38' W 074°08'0 0.0
2017-Dec-11 07:30N 40°38' W 074°08'0 0.0
2017-Dec-11 07:00N 40°38' W 074°08'0 0.0
2017-Dec-11 06:30N 40°38' W 074°08'0 0.0
2017-Dec-11 05:57N 40°38' W 074°08'0 0.0
2017-Dec-11 05:30N 40°38' W 074°08'0 0.0
2017-Dec-11 05:00N 40°38' W 074°08'0 0.0
2017-Dec-11 04:30N 40°38' W 074°08'0 0.0
2017-Dec-11 04:00N 40°38' W 074°08'0 0.0
2017-Dec-11 03:24N 40°38' W 074°08'0 0.0
2017-Dec-11 02:57N 40°38' W 074°08'0 0.0
2017-Dec-11 02:30N 40°38' W 074°08'0 0.0
2017-Dec-11 01:42N 40°38' W 074°08'0 0.0
2017-Dec-11 01:15N 40°38' W 074°08'0 0.0
2017-Dec-11 00:09N 40°38' W 074°08'0 0.0
2017-Dec-11 00:00N 40°38' W 074°08'0 0.0
2017-Dec-10 23:30N 40°38' W 074°08'0 0.0
2017-Dec-10 23:00N 40°38' W 074°08'0 0.0
2017-Dec-10 22:28N 40°38' W 074°08'0 0.0
2017-Dec-10 22:00N 40°38' W 074°08'0 0.0
2017-Dec-10 21:30N 40°38' W 074°08'0 0.0
2017-Dec-10 21:00N 40°38' W 074°08'0 0.0
2017-Dec-10 20:30N 40°38' W 074°08'0 0.0
2017-Dec-10 20:00N 40°38' W 074°08'0 0.0
2017-Dec-10 19:30N 40°38' W 074°08'0 0.0
2017-Dec-10 19:00N 40°38' W 074°08'0 0.0
2017-Dec-10 18:30N 40°38' W 074°08'0 0.0
2017-Dec-10 18:00N 40°38' W 074°08'0 0.0
2017-Dec-10 17:30N 40°38' W 074°08'0 0.0
2017-Dec-10 16:59N 40°38' W 074°08'0 0.0
2017-Dec-10 16:30N 40°38' W 074°08'0 0.1
2017-Dec-10 16:00N 40°38' W 074°08'0 0.0
2017-Dec-10 15:25N 40°38' W 074°08'0 0.0
2017-Dec-10 14:49N 40°38' W 074°08'0 0.0
2017-Dec-10 14:27N 40°38' W 074°08'0 0.0
2017-Dec-10 13:59N 40°38' W 074°08'0 0.7
2017-Dec-10 13:31N 40°39' W 074°07'0 0.2
2017-Dec-10 13:00N 40°39' W 074°07'0 0.0
2017-Dec-10 12:30N 40°39' W 074°07'0 0.0
2017-Dec-10 12:00N 40°39' W 074°07'0 0.7
2017-Dec-10 11:20N 40°38' W 074°08'0 0.0
2017-Dec-10 10:30N 40°38' W 074°08'0 0.0
2017-Dec-10 09:52N 40°38' W 074°08'0 0.0
2017-Dec-10 09:27N 40°38' W 074°08'0 0.0
2017-Dec-10 09:00N 40°38' W 074°08'0 0.0
2017-Dec-10 08:30N 40°38' W 074°08'0 0.0
2017-Dec-10 07:42N 40°38' W 074°08'0 0.0
2017-Dec-10 07:28N 40°38' W 074°08'0 0.0
2017-Dec-10 06:58N 40°38' W 074°08'0 0.0
2017-Dec-10 06:05N 40°38' W 074°08'0 0.0
2017-Dec-10 05:59N 40°38' W 074°08'0 0.0
2017-Dec-10 05:30N 40°38' W 074°08'3 6.0
2017-Dec-10 05:00N 40°41' W 074°09'0 0.5
2017-Dec-10 04:30N 40°41' W 074°09'0 0.1
2017-Dec-10 04:00N 40°41' W 074°09'1 1.8
2017-Dec-10 03:30N 40°40' W 074°08'2 3.8
2017-Dec-10 03:00N 40°39' W 074°07'0 0.3
2017-Dec-10 02:06N 40°38' W 074°08'0 0.0
2017-Dec-10 02:00N 40°38' W 074°08'0 0.0
2017-Dec-10 01:12N 40°38' W 074°08'0 0.0
2017-Dec-10 00:57N 40°38' W 074°08'0 0.0
2017-Dec-10 00:30N 40°38' W 074°08'0 0.0
2017-Dec-10 00:00N 40°38' W 074°08'0 0.0
2017-Dec-09 23:27N 40°38' W 074°08'0 0.0
2017-Dec-09 22:57N 40°38' W 074°08'0 0.0
2017-Dec-09 22:30N 40°38' W 074°08'0 0.0
2017-Dec-09 21:33N 40°38' W 074°08'0 0.0
2017-Dec-09 21:30N 40°38' W 074°08'0 0.0
2017-Dec-09 20:57N 40°38' W 074°08'0 0.0
2017-Dec-09 20:18N 40°38' W 074°08'0 0.0
2017-Dec-09 19:54N 40°38' W 074°08'0 0.0
2017-Dec-09 19:27N 40°38' W 074°08'0 0.0
2017-Dec-09 18:57N 40°38' W 074°08'0 0.0
2017-Dec-09 18:27N 40°38' W 074°08'0 0.0
2017-Dec-09 18:00N 40°38' W 074°08'0 0.0
2017-Dec-09 17:21N 40°38' W 074°08'0 0.0
2017-Dec-09 17:00N 40°38' W 074°08'0 0.0
2017-Dec-09 16:29N 40°38' W 074°08'0 0.0
2017-Dec-09 15:26N 40°38' W 074°08'0 0.0
2017-Dec-09 14:59N 40°38' W 074°08'0 0.0
2017-Dec-09 14:27N 40°38' W 074°08'0 0.0
2017-Dec-09 14:00N 40°38' W 074°08'0 0.0
2017-Dec-09 13:30N 40°38' W 074°08'0 0.0
2017-Dec-09 13:00N 40°38' W 074°08'0 0.0
2017-Dec-09 12:30N 40°38' W 074°08'3 5.0
2017-Dec-09 12:00N 40°41' W 074°09'0 0.6
2017-Dec-09 11:30N 40°41' W 074°09'1 2.6
2017-Dec-09 11:00N 40°40' W 074°08'2 3.1
2017-Dec-09 10:30N 40°39' W 074°07'3 5.8
2017-Dec-09 10:00N 40°39' W 074°04'2 3.9
2017-Dec-09 09:30N 40°37' W 074°03'3 5.9
2017-Dec-09 09:00N 40°39' W 074°06'0 0.0
2017-Dec-09 08:30N 40°39' W 074°06'0 0.0
2017-Dec-09 08:00N 40°39' W 074°06'2 4.8
2017-Dec-09 07:30N 40°39' W 074°09'2 3.6
2017-Dec-09 07:00N 40°41' W 074°09'0 0.4
2017-Dec-09 06:30N 40°41' W 074°08'2 4.1
2017-Dec-09 06:00N 40°39' W 074°09'2 4.8
2017-Dec-09 05:30N 40°39' W 074°06'3 5.5
2017-Dec-09 05:00N 40°37' W 074°03'3 6.2
2017-Dec-09 04:30N 40°39' W 074°06'1 1.7
2017-Dec-09 03:51N 40°38' W 074°08'0 0.0
2017-Dec-09 02:10N 40°38' W 074°08'0 0.0
2017-Dec-09 01:52N 40°38' W 074°08'0 0.0
2017-Dec-09 01:28N 40°38' W 074°08'0 0.0
2017-Dec-09 00:22N 40°38' W 074°08'0 0.0
2017-Dec-08 23:51N 40°38' W 074°08'0 0.0
2017-Dec-08 23:31N 40°38' W 074°08'0 0.0
2017-Dec-08 22:45N 40°38' W 074°08'0 0.0
2017-Dec-08 22:30N 40°38' W 074°08'0 0.0
2017-Dec-08 22:00N 40°38' W 074°08'0 0.0
2017-Dec-08 21:30N 40°38' W 074°08'0 0.0
2017-Dec-08 21:00N 40°38' W 074°08'0 0.0
2017-Dec-08 20:30N 40°38' W 074°08'0 0.0
2017-Dec-08 20:00N 40°38' W 074°08'0 0.0
2017-Dec-08 19:30N 40°38' W 074°08'0 0.0
2017-Dec-08 19:00N 40°38' W 074°08'0 0.0
2017-Dec-08 18:30N 40°38' W 074°08'0 0.0
2017-Dec-08 18:00N 40°38' W 074°08'0 0.0
2017-Dec-08 17:31N 40°38' W 074°08'0 0.0
2017-Dec-08 17:00N 40°38' W 074°08'0 0.0
2017-Dec-08 16:30N 40°38' W 074°08'0 0.0
2017-Dec-08 16:00N 40°38' W 074°08'0 0.0
2017-Dec-08 15:30N 40°38' W 074°08'0 0.0
2017-Dec-08 15:00N 40°38' W 074°08'0 0.0
2017-Dec-08 14:30N 40°38' W 074°08'0 0.0
2017-Dec-08 14:00N 40°38' W 074°08'0 0.0
2017-Dec-08 13:30N 40°38' W 074°08'0 0.0
2017-Dec-08 13:00N 40°38' W 074°08'1 2.1
2017-Dec-08 12:30N 40°39' W 074°09'2 4.0
2017-Dec-08 12:00N 40°41' W 074°09'0 0.7
2017-Dec-08 11:30N 40°41' W 074°09'1 2.0
2017-Dec-08 11:00N 40°40' W 074°09'1 3.0
2017-Dec-08 10:30N 40°39' W 074°07'3 6.0
2017-Dec-08 10:00N 40°38' W 074°03'1 2.9
2017-Dec-08 09:30N 40°37' W 074°03'3 7.1
2017-Dec-08 09:00N 40°39' W 074°07'1 1.5
2017-Dec-08 08:30N 40°38' W 074°08'0 0.0
2017-Dec-08 07:59N 40°38' W 074°08'0 0.0
2017-Dec-08 07:30N 40°38' W 074°08'0 0.0
2017-Dec-08 07:00N 40°38' W 074°08'0 0.0
2017-Dec-08 06:30N 40°38' W 074°08'0 0.0
2017-Dec-08 05:59N 40°38' W 074°08'0 0.0
2017-Dec-08 05:30N 40°38' W 074°08'0 0.0
2017-Dec-08 05:00N 40°38' W 074°08'2 3.5
2017-Dec-08 04:29N 40°40' W 074°08'1 1.5
2017-Dec-08 04:00N 40°41' W 074°09'0 0.1
2017-Dec-08 03:30N 40°41' W 074°09'2 5.1
2017-Dec-08 03:00N 40°38' W 074°08'0 0.0
2017-Dec-08 02:30N 40°38' W 074°08'0 0.0
2017-Dec-08 02:00N 40°38' W 074°08'0 0.0
2017-Dec-08 01:30N 40°38' W 074°08'0 0.0
2017-Dec-08 01:00N 40°38' W 074°08'1 1.8
2017-Dec-08 00:30N 40°39' W 074°09'3 5.7
2017-Dec-08 00:00N 40°41' W 074°08'1 3.0
2017-Dec-07 23:30N 40°40' W 074°08'2 3.0
2017-Dec-07 23:00N 40°38' W 074°08'0 0.0
2017-Dec-07 22:29N 40°38' W 074°08'0 0.0
2017-Dec-07 22:00N 40°38' W 074°08'0 0.0
2017-Dec-07 21:30N 40°38' W 074°08'0 0.0
2017-Dec-07 20:59N 40°38' W 074°08'0 0.0
2017-Dec-07 20:29N 40°38' W 074°08'0 0.0
2017-Dec-07 20:00N 40°38' W 074°08'0 0.0
2017-Dec-07 19:30N 40°38' W 074°08'0 0.0
2017-Dec-07 19:00N 40°38' W 074°08'0 0.0
2017-Dec-07 18:30N 40°38' W 074°08'0 0.0
2017-Dec-07 17:59N 40°38' W 074°08'0 0.0
2017-Dec-07 17:29N 40°38' W 074°08'0 0.0
2017-Dec-07 16:58N 40°38' W 074°08'1 2.7
2017-Dec-07 16:29N 40°39' W 074°06'1 2.7
2017-Dec-07 16:00N 40°39' W 074°08'1 2.2
2017-Dec-07 15:30N 40°40' W 074°09'1 2.2
2017-Dec-07 15:00N 40°41' W 074°08'0 0.4
2017-Dec-07 14:30N 40°41' W 074°09'0 0.4
2017-Dec-07 14:00N 40°41' W 074°09'2 3.3
2017-Dec-07 13:21N 40°38' W 074°08'0 0.0
2017-Dec-07 12:57N 40°38' W 074°08'0 0.0
2017-Dec-07 12:27N 40°38' W 074°08'0 0.4
2017-Dec-07 12:00N 40°39' W 074°08'3 5.2
2017-Dec-07 11:30N 40°41' W 074°09'0 0.7
2017-Dec-07 11:01N 40°41' W 074°09'2 4.6
2017-Dec-07 10:30N 40°39' W 074°08'3 6.3
2017-Dec-07 10:00N 40°39' W 074°04'2 3.1
2017-Dec-07 09:30N 40°38' W 074°03'4 7.3
2017-Dec-07 09:00N 40°38' W 074°08'0 0.0
2017-Dec-07 08:30N 40°38' W 074°08'0 0.0
2017-Dec-07 07:59N 40°38' W 074°08'0 0.0
2017-Dec-07 07:30N 40°38' W 074°08'0 0.0
2017-Dec-07 07:00N 40°38' W 074°08'0 0.0
2017-Dec-07 06:30N 40°38' W 074°08'0 0.0
2017-Dec-07 05:59N 40°38' W 074°08'0 0.0
2017-Dec-07 05:28N 40°38' W 074°08'1 1.9
2017-Dec-07 05:00N 40°39' W 074°07'2 4.4
2017-Dec-07 04:29N 40°38' W 074°04'2 4.9
2017-Dec-07 04:00N 40°39' W 074°07'3 6.7
2017-Dec-07 03:30N 40°39' W 074°11'2 4.2
2017-Dec-07 03:00N 40°37' W 074°12'0 0.0
2017-Dec-07 02:28N 40°37' W 074°12'1 2.6
2017-Dec-07 02:00N 40°38' W 074°12'3 5.7
2017-Dec-07 01:24N 40°38' W 074°08'0 0.0
2017-Dec-07 00:39N 40°38' W 074°08'0 0.0
2017-Dec-07 00:29N 40°38' W 074°08'2 3.8
2017-Dec-07 00:00N 40°40' W 074°08'1 2.9
2017-Dec-06 23:30N 40°42' W 074°08'0 0.0
2017-Dec-06 23:00N 40°42' W 074°08'2 4.5
2017-Dec-06 22:29N 40°39' W 074°09'1 2.4
2017-Dec-06 22:00N 40°38' W 074°08'0 0.0
2017-Dec-06 21:28N 40°38' W 074°08'0 0.0
2017-Dec-06 20:57N 40°38' W 074°08'  

Dump ship's entire track history